createdAt,value
2023-01-21T00:00:11.211Z,1.40
2023-01-21T00:02:38.016Z,1.80
2023-01-21T00:05:05.104Z,1.50
2023-01-21T00:07:31.808Z,1.60
2023-01-21T00:09:58.415Z,1.40
2023-01-21T00:12:25.051Z,2.00
2023-01-21T00:14:51.733Z,2.30
2023-01-21T00:17:18.411Z,1.40
2023-01-21T00:19:44.988Z,1.20
2023-01-21T00:22:11.827Z,1.10
2023-01-21T00:24:38.421Z,0.90
2023-01-21T00:27:05.078Z,1.10
2023-01-21T00:29:31.817Z,1.50
2023-01-21T00:31:58.439Z,1.50
2023-01-21T00:34:25.193Z,1.10
2023-01-21T00:36:51.787Z,0.90
2023-01-21T00:39:18.578Z,1.20
2023-01-21T00:41:45.261Z,1.00
2023-01-21T00:44:11.884Z,0.80
2023-01-21T00:46:38.580Z,0.80
2023-01-21T00:49:05.338Z,0.70
2023-01-21T00:51:31.981Z,1.70
2023-01-21T00:53:58.721Z,1.40
2023-01-21T00:56:25.467Z,0.90
2023-01-21T00:58:52.317Z,1.60
2023-01-21T01:01:20.989Z,0.60
2023-01-21T01:03:49.074Z,0.90
2023-01-21T01:06:18.466Z,1.20
2023-01-21T01:08:46.318Z,1.30
2023-01-21T01:11:14.317Z,1.10
2023-01-21T01:13:41.573Z,1.90
2023-01-21T01:16:08.774Z,1.40
2023-01-21T01:18:37.471Z,0.90
2023-01-21T01:21:05.497Z,1.10
2023-01-21T01:23:32.667Z,1.10
2023-01-21T01:26:05.240Z,0.80
2023-01-21T01:28:33.422Z,1.00
2023-01-21T01:31:01.056Z,0.90
2023-01-21T01:33:28.237Z,1.50
2023-01-21T01:35:55.294Z,0.50
2023-01-21T01:38:23.117Z,0.60
2023-01-21T01:40:52.604Z,0.70
2023-01-21T01:43:24.947Z,0.50
2023-01-21T01:48:27.587Z,0.70
2023-01-21T01:50:58.055Z,0.70
2023-01-21T01:53:26.651Z,0.50
2023-01-21T01:55:53.818Z,1.40
2023-01-21T01:58:22.560Z,0.70
2023-01-21T02:00:49.553Z,0.70
2023-01-21T02:03:36.794Z,0.70
2023-01-21T02:06:04.480Z,1.30
2023-01-21T02:08:34.523Z,0.70
2023-01-21T02:11:02.667Z,0.60
2023-01-21T02:13:33.314Z,0.80
2023-01-21T02:16:15.321Z,1.10
2023-01-21T02:18:58.432Z,0.40
2023-01-21T02:21:46.277Z,0.80
2023-01-21T02:24:37.445Z,0.60
2023-01-21T02:27:09.735Z,0.70
2023-01-21T02:29:55.329Z,0.90
2023-01-21T02:32:37.991Z,0.60
2023-01-21T02:35:23.743Z,0.50
2023-01-21T02:37:59.474Z,0.60
2023-01-21T02:40:38.342Z,0.40
2023-01-21T02:43:24.935Z,0.50
2023-01-21T02:45:55.480Z,0.50
2023-01-21T02:48:54.396Z,0.60
2023-01-21T02:51:23.459Z,0.60
2023-01-21T02:53:50.215Z,1.40
2023-01-21T02:56:25.246Z,0.50
2023-01-21T02:58:58.953Z,0.50
2023-01-21T03:01:33.024Z,0.70
2023-01-21T03:04:32.244Z,1.10
2023-01-21T03:07:12.937Z,0.50
2023-01-21T03:09:40.117Z,1.80
2023-01-21T03:12:50.030Z,0.40
2023-01-21T03:15:44.303Z,0.40
2023-01-21T03:18:20.115Z,0.40
2023-01-21T03:20:52.538Z,0.80
2023-01-21T03:23:39.187Z,0.50
2023-01-21T03:26:08.379Z,1.30
2023-01-21T03:28:44.691Z,0.40
2023-01-21T03:31:21.169Z,0.30
2023-01-21T03:33:52.465Z,0.80
2023-01-21T03:36:41.950Z,0.80
2023-01-21T03:39:19.037Z,0.50
2023-01-21T03:41:45.821Z,0.60
2023-01-21T03:44:12.747Z,0.30
2023-01-21T03:47:25.312Z,0.50
2023-01-21T03:50:32.797Z,0.80
2023-01-21T03:53:00.208Z,1.80
2023-01-21T03:55:26.898Z,0.40
2023-01-21T03:57:53.631Z,0.20
2023-01-21T04:00:20.418Z,1.50
2023-01-21T04:02:46.985Z,0.30
2023-01-21T04:05:14.265Z,0.30
2023-01-21T04:07:40.893Z,0.50
2023-01-21T04:10:08.649Z,0.50
2023-01-21T04:12:35.281Z,1.40
2023-01-21T04:15:05.098Z,2.80
2023-01-21T04:17:32.295Z,0.30
2023-01-21T04:19:58.878Z,0.20
2023-01-21T04:22:25.511Z,0.50
2023-01-21T04:24:52.073Z,0.40
2023-01-21T04:27:18.636Z,0.40
2023-01-21T04:29:45.286Z,0.30
2023-01-21T04:32:11.975Z,0.40
2023-01-21T04:34:38.679Z,0.40
2023-01-21T04:37:05.250Z,0.20
2023-01-21T04:39:31.973Z,0.30
2023-01-21T04:41:58.592Z,5.70
2023-01-21T04:44:25.217Z,0.30
2023-01-21T04:46:51.852Z,0.30
2023-01-21T04:49:18.530Z,0.50
2023-01-21T04:51:45.199Z,0.70
2023-01-21T04:54:11.983Z,0.60
2023-01-21T04:56:38.565Z,1.60
2023-01-21T04:59:05.522Z,0.50
2023-01-21T05:04:16.451Z,0.80
2023-01-21T05:06:43.123Z,0.70
2023-01-21T05:09:09.799Z,0.40
2023-01-21T05:11:36.507Z,0.80
2023-01-21T05:14:03.180Z,0.60
2023-01-21T05:16:29.923Z,0.40
2023-01-21T05:18:56.572Z,0.50
2023-01-21T05:21:23.190Z,1.30
2023-01-21T05:23:49.772Z,0.40
2023-01-21T05:26:16.434Z,0.90
2023-01-21T05:28:43.052Z,0.30
2023-01-21T05:31:09.769Z,1.10
2023-01-21T05:33:36.749Z,0.30
2023-01-21T05:36:04.136Z,0.20
2023-01-21T05:38:30.914Z,0.40
2023-01-21T05:41:02.531Z,0.40
2023-01-21T05:43:29.714Z,2.00
2023-01-21T05:45:56.578Z,0.40
2023-01-21T05:48:23.521Z,0.50
2023-01-21T05:50:50.440Z,0.60
2023-01-21T05:53:17.902Z,0.40
2023-01-21T05:55:44.460Z,6.80
2023-01-21T05:58:11.244Z,0.50
2023-01-21T06:00:37.924Z,1.80
2023-01-21T06:03:04.975Z,0.40
2023-01-21T06:05:31.604Z,0.40
2023-01-21T06:07:58.195Z,0.90
2023-01-21T06:10:24.847Z,0.50
2023-01-21T06:12:52.095Z,1.00
2023-01-21T06:15:19.294Z,1.50
2023-01-21T06:17:47.497Z,0.40
2023-01-21T06:20:14.427Z,0.30
2023-01-21T06:22:41.268Z,2.70
2023-01-21T06:25:08.361Z,0.30
2023-01-21T06:27:37.241Z,5.50
2023-01-21T06:30:09.056Z,0.70
2023-01-21T06:32:36.283Z,1.50
2023-01-21T06:35:04.314Z,0.30
2023-01-21T06:37:30.998Z,1.70
2023-01-21T06:39:57.846Z,0.50
2023-01-21T06:42:24.483Z,0.50
2023-01-21T06:44:51.164Z,0.40
2023-01-21T06:47:17.969Z,2.20
2023-01-21T06:49:44.660Z,0.40
2023-01-21T06:52:11.426Z,1.80
2023-01-21T06:54:38.125Z,2.50
2023-01-21T06:57:04.747Z,2.30
2023-01-21T06:59:31.403Z,5.30
2023-01-21T07:01:59.189Z,0.50
2023-01-21T07:04:27.449Z,0.90
2023-01-21T07:06:54.477Z,0.60
2023-01-21T07:09:21.555Z,0.60
2023-01-21T07:11:48.400Z,0.60
2023-01-21T07:14:15.058Z,3.70
2023-01-21T07:16:41.783Z,0.70
2023-01-21T07:19:08.728Z,0.60
2023-01-21T07:21:35.465Z,0.60
2023-01-21T07:24:02.039Z,0.80
2023-01-21T07:26:28.765Z,0.50
2023-01-21T07:28:55.521Z,0.70
2023-01-21T07:31:22.205Z,0.70
2023-01-21T07:33:48.887Z,0.50
2023-01-21T07:36:15.580Z,1.30
2023-01-21T07:38:42.212Z,3.50
2023-01-21T07:41:09.239Z,0.80
2023-01-21T07:43:35.875Z,1.30
2023-01-21T07:46:02.479Z,0.60
2023-01-21T07:48:29.127Z,2.20
2023-01-21T07:50:59.801Z,2.60
2023-01-21T07:53:27.352Z,2.10
2023-01-21T07:55:54.746Z,9.10
2023-01-21T07:58:21.424Z,5.00
2023-01-21T08:00:48.048Z,3.50
2023-01-21T08:03:14.807Z,2.80
2023-01-21T08:05:41.412Z,2.70
2023-01-21T08:08:08.005Z,7.10
2023-01-21T08:10:34.703Z,5.10
2023-01-21T08:13:01.924Z,2.50
2023-01-21T08:15:28.650Z,11.40
2023-01-21T08:17:56.511Z,5.20
2023-01-21T08:20:23.731Z,1.50
2023-01-21T08:22:50.947Z,2.80
2023-01-21T08:25:18.303Z,1.50
2023-01-21T08:27:45.386Z,3.70
2023-01-21T08:30:12.471Z,11.00
2023-01-21T08:32:39.142Z,18.80
2023-01-21T08:35:06.610Z,11.90
2023-01-21T08:37:33.325Z,25.80
2023-01-21T08:40:00.033Z,28.50
2023-01-21T08:42:26.658Z,15.30
2023-01-21T08:44:54.197Z,23.10
2023-01-21T08:47:20.858Z,23.20
2023-01-21T08:49:47.491Z,20.30
2023-01-21T08:52:14.631Z,15.20
2023-01-21T08:54:41.642Z,19.90
2023-01-21T08:57:08.315Z,12.90
2023-01-21T08:59:35.551Z,18.20
2023-01-21T09:02:02.221Z,14.50
2023-01-21T09:04:28.920Z,15.90
2023-01-21T09:06:55.524Z,14.80
2023-01-21T09:09:22.165Z,9.00
2023-01-21T09:11:48.848Z,11.50
2023-01-21T09:14:15.507Z,14.30
2023-01-21T09:16:42.135Z,15.30
2023-01-21T09:19:08.758Z,8.80
2023-01-21T09:21:35.807Z,8.00
2023-01-21T09:24:02.988Z,12.40
2023-01-21T09:26:29.632Z,4.40
2023-01-21T09:28:59.142Z,2.00
2023-01-21T09:31:27.409Z,2.90
2023-01-21T09:33:57.447Z,3.60
2023-01-21T09:36:26.738Z,2.10
2023-01-21T09:38:53.656Z,3.80
2023-01-21T09:41:26.580Z,1.60
2023-01-21T09:44:05.727Z,2.10
2023-01-21T09:46:41.481Z,2.70
2023-01-21T09:49:26.653Z,2.60
2023-01-21T09:52:16.748Z,4.60
2023-01-21T09:57:12.688Z,1.20
2023-01-21T09:59:59.578Z,3.40
2023-01-21T10:02:32.029Z,3.00
2023-01-21T10:05:01.560Z,2.40
2023-01-21T10:07:37.122Z,3.70
2023-01-21T10:10:13.212Z,1.20
2023-01-21T10:12:55.564Z,1.30
2023-01-21T10:15:35.178Z,3.00
2023-01-21T10:18:30.441Z,1.70
2023-01-21T10:21:05.012Z,1.70
2023-01-21T10:23:31.596Z,6.70
2023-01-21T10:26:02.435Z,9.10
2023-01-21T10:28:32.539Z,1.80
2023-01-21T10:31:08.750Z,4.30
2023-01-21T10:33:35.581Z,2.80
2023-01-21T10:36:14.203Z,4.40
2023-01-21T10:39:09.808Z,5.60
2023-01-21T10:42:01.161Z,3.00
2023-01-21T10:44:34.274Z,1.80
2023-01-21T10:47:43.184Z,2.70
2023-01-21T10:50:37.587Z,5.60
2023-01-21T10:53:18.577Z,4.70
2023-01-21T10:56:11.844Z,2.30
2023-01-21T10:58:45.344Z,2.30
2023-01-21T11:01:25.793Z,7.90
2023-01-21T11:04:00.531Z,3.70
2023-01-21T11:06:31.033Z,1.50
2023-01-21T11:09:02.954Z,2.50
2023-01-21T11:13:59.765Z,3.20
2023-01-21T11:16:45.074Z,1.70
2023-01-21T11:19:22.928Z,4.50
2023-01-21T11:22:04.491Z,5.80
2023-01-21T11:24:41.905Z,1.60
2023-01-21T11:27:20.367Z,1.90
2023-01-21T11:29:49.202Z,2.50
2023-01-21T11:32:24.772Z,2.10
2023-01-21T11:35:01.674Z,4.00
2023-01-21T11:37:30.398Z,2.00
2023-01-21T11:40:13.092Z,2.00
2023-01-21T11:42:54.557Z,4.10
2023-01-21T11:45:38.937Z,3.00
2023-01-21T11:48:21.138Z,1.70
2023-01-21T11:50:48.149Z,3.60
2023-01-21T11:53:17.544Z,2.70
2023-01-21T11:55:50.486Z,2.80
2023-01-21T11:58:22.879Z,2.70
2023-01-21T12:00:53.029Z,2.20
2023-01-21T12:03:45.692Z,3.80
2023-01-21T12:06:30.671Z,3.30
2023-01-21T12:09:02.675Z,2.60
2023-01-21T12:13:58.312Z,2.70
2023-01-21T12:16:40.529Z,3.80
2023-01-21T12:19:19.490Z,3.70
2023-01-21T12:21:46.643Z,2.30
2023-01-21T12:24:19.030Z,2.60
2023-01-21T12:26:51.080Z,2.10
2023-01-21T12:32:15.342Z,2.50
2023-01-21T12:35:05.441Z,1.80
2023-01-21T12:40:32.734Z,4.20
2023-01-21T12:43:10.176Z,3.30
2023-01-21T12:45:44.905Z,2.10
2023-01-21T12:48:29.486Z,2.90
2023-01-21T12:51:11.243Z,3.00
2023-01-21T12:53:48.564Z,3.00
2023-01-21T12:56:20.704Z,2.10
2023-01-21T12:58:59.777Z,5.10
2023-01-21T13:01:41.509Z,4.50
2023-01-21T13:04:32.397Z,3.20
2023-01-21T13:07:11.577Z,4.40
2023-01-21T13:09:48.155Z,2.50
2023-01-21T13:12:21.711Z,4.10
2023-01-21T13:14:59.702Z,3.20
2023-01-21T13:17:33.981Z,4.20
2023-01-21T13:20:02.085Z,3.00
2023-01-21T13:22:40.610Z,5.80
2023-01-21T13:25:33.303Z,3.10
2023-01-21T13:28:32.201Z,2.90
2023-01-21T13:31:26.014Z,3.20
2023-01-21T13:34:13.974Z,4.00
2023-01-21T13:36:58.979Z,1.90
2023-01-21T13:39:31.686Z,2.60
2023-01-21T13:42:20.347Z,3.20
2023-01-21T13:44:54.531Z,3.10
2023-01-21T13:47:43.285Z,3.00
2023-01-21T13:50:42.712Z,9.00
2023-01-21T13:53:37.331Z,2.60
2023-01-21T13:56:15.918Z,3.60
2023-01-21T13:58:57.889Z,5.80
2023-01-21T14:01:33.640Z,5.00
2023-01-21T14:04:11.096Z,7.60
2023-01-21T14:06:49.782Z,5.60
2023-01-21T14:09:38.701Z,5.20
2023-01-21T14:12:39.159Z,6.40
2023-01-21T14:15:18.251Z,5.80
2023-01-21T14:18:17.247Z,4.80
2023-01-21T14:21:07.711Z,4.20
2023-01-21T14:23:37.101Z,4.20
2023-01-21T14:26:10.889Z,4.40
2023-01-21T14:28:53.232Z,3.60
2023-01-21T14:31:31.037Z,3.90
2023-01-21T14:34:21.888Z,3.70
2023-01-21T14:36:56.735Z,2.80
2023-01-21T14:40:05.719Z,3.20
2023-01-21T14:42:45.007Z,3.30
2023-01-21T14:45:14.237Z,4.20
2023-01-21T14:47:46.774Z,2.90
2023-01-21T14:50:47.103Z,2.20
2023-01-21T14:53:20.415Z,3.30
2023-01-21T14:56:06.479Z,3.60
2023-01-21T14:58:34.737Z,4.00
2023-01-21T15:01:02.795Z,2.70
2023-01-21T15:03:31.499Z,3.00
2023-01-21T15:06:02.391Z,1.90
2023-01-21T15:08:45.542Z,2.00
2023-01-21T15:11:34.779Z,2.90
2023-01-21T15:14:21.640Z,1.60
2023-01-21T15:16:49.113Z,1.60
2023-01-21T15:19:21.200Z,1.40
2023-01-21T15:24:30.804Z,1.40
2023-01-21T15:27:23.101Z,1.60
2023-01-21T15:29:59.023Z,1.90
2023-01-21T15:32:37.636Z,2.30
2023-01-21T15:35:15.893Z,2.20
2023-01-21T15:37:46.043Z,4.10
2023-01-21T15:40:36.250Z,3.80
2023-01-21T15:43:26.170Z,2.00
2023-01-21T15:46:14.953Z,3.70
2023-01-21T15:48:53.803Z,2.70
2023-01-21T15:51:32.817Z,1.50
2023-01-21T15:54:28.309Z,4.80
2023-01-21T15:57:16.169Z,2.70
2023-01-21T16:00:13.032Z,3.30
2023-01-21T16:02:55.237Z,1.90
2023-01-21T16:05:39.032Z,3.40
2023-01-21T16:08:23.000Z,4.00
2023-01-21T16:10:49.535Z,2.20
2023-01-21T16:13:45.056Z,2.40
2023-01-21T16:16:46.994Z,4.10
2023-01-21T16:19:17.034Z,5.90
2023-01-21T16:21:47.153Z,19.80
2023-01-21T16:24:19.052Z,38.10
2023-01-21T16:26:46.004Z,55.50
2023-01-21T16:29:14.314Z,39.30
2023-01-21T16:31:49.296Z,32.10
2023-01-21T16:34:39.048Z,15.90
2023-01-21T16:37:06.836Z,20.50
2023-01-21T16:39:33.499Z,16.00
2023-01-21T16:42:03.199Z,10.00
2023-01-21T16:44:32.635Z,6.20
2023-01-21T16:46:59.449Z,7.60
2023-01-21T16:49:26.638Z,4.90
2023-01-21T16:51:57.239Z,9.40
2023-01-21T16:54:34.805Z,5.30
2023-01-21T16:57:23.478Z,4.70
2023-01-21T16:59:50.251Z,3.90
2023-01-21T17:02:31.583Z,3.70
2023-01-21T17:05:02.032Z,3.20
2023-01-21T17:07:35.321Z,3.60
2023-01-21T17:10:28.541Z,2.90
2023-01-21T17:13:15.952Z,2.70
2023-01-21T17:16:03.369Z,2.30
2023-01-21T17:18:43.083Z,3.70
2023-01-21T17:21:17.049Z,2.00
2023-01-21T17:23:51.888Z,3.60
2023-01-21T17:26:29.610Z,6.30
2023-01-21T17:29:17.409Z,8.40
2023-01-21T17:31:45.157Z,4.90
2023-01-21T17:34:14.658Z,3.70
2023-01-21T17:36:43.659Z,5.40
2023-01-21T17:39:11.627Z,3.70
2023-01-21T17:41:41.729Z,4.40
2023-01-21T17:44:23.628Z,4.70
2023-01-21T17:46:53.409Z,4.90
2023-01-21T17:49:23.418Z,3.40
2023-01-21T17:51:53.242Z,4.90
2023-01-21T17:54:25.933Z,2.80
2023-01-21T17:56:57.321Z,4.20
2023-01-21T17:59:41.761Z,4.30
2023-01-21T18:02:13.944Z,6.60
2023-01-21T18:04:42.056Z,9.20
2023-01-21T18:07:25.286Z,9.10
2023-01-21T18:09:53.595Z,4.80
2023-01-21T18:12:20.970Z,6.10
2023-01-21T18:14:47.882Z,17.50
2023-01-21T18:17:20.065Z,8.20
2023-01-21T18:22:31.976Z,8.30
2023-01-21T18:25:00.605Z,9.10
2023-01-21T18:27:27.292Z,9.00
2023-01-21T18:29:54.650Z,4.30
2023-01-21T18:32:21.321Z,4.50
2023-01-21T18:34:47.911Z,5.60
2023-01-21T18:37:17.569Z,4.30
2023-01-21T18:39:44.328Z,4.30
2023-01-21T18:42:16.168Z,4.70
2023-01-21T18:44:43.491Z,3.80
2023-01-21T18:47:15.827Z,3.90
2023-01-21T18:49:44.364Z,3.50
2023-01-21T18:52:15.115Z,6.00
2023-01-21T18:54:41.772Z,4.10
2023-01-21T18:57:18.184Z,5.70
2023-01-21T18:59:44.946Z,4.30
2023-01-21T19:02:20.403Z,5.70
2023-01-21T19:04:47.601Z,4.00
2023-01-21T19:07:16.205Z,4.30
2023-01-21T19:09:46.162Z,4.50
2023-01-21T19:12:14.374Z,4.20
2023-01-21T19:14:41.012Z,15.90
2023-01-21T19:17:13.280Z,10.90
2023-01-21T19:19:40.459Z,6.30
2023-01-21T19:22:14.070Z,7.60
2023-01-21T19:24:41.335Z,12.00
2023-01-21T19:27:21.649Z,9.30
2023-01-21T19:29:48.531Z,6.70
2023-01-21T19:32:15.301Z,5.50
2023-01-21T19:34:42.509Z,14.80
2023-01-21T19:37:17.211Z,16.50
2023-01-21T19:39:43.880Z,23.20
2023-01-21T19:42:13.350Z,26.60
2023-01-21T19:44:40.126Z,16.70
2023-01-21T19:47:16.787Z,7.80
2023-01-21T19:49:43.337Z,7.20
2023-01-21T19:52:13.311Z,6.90
2023-01-21T19:54:40.385Z,5.80
2023-01-21T19:57:19.000Z,5.00
2023-01-21T19:59:50.624Z,6.50
2023-01-21T20:02:17.363Z,22.00
2023-01-21T20:04:44.036Z,23.30
2023-01-21T20:07:14.760Z,25.10
2023-01-21T20:09:41.675Z,16.90
2023-01-21T20:12:10.776Z,33.40
2023-01-21T20:14:37.410Z,40.80
2023-01-21T20:17:04.532Z,20.30
2023-01-21T20:19:31.184Z,23.20
2023-01-21T20:22:02.315Z,53.80
2023-01-21T20:24:30.602Z,71.70
2023-01-21T20:26:58.943Z,64.20
2023-01-21T20:29:27.170Z,34.50
2023-01-21T20:31:54.464Z,18.70
2023-01-21T20:34:21.438Z,21.60
2023-01-21T20:36:49.689Z,21.10
2023-01-21T20:39:16.458Z,19.50
2023-01-21T20:41:43.892Z,12.20
2023-01-21T20:44:10.683Z,8.20
2023-01-21T20:46:38.646Z,11.90
2023-01-21T20:49:05.481Z,28.60
2023-01-21T20:51:32.105Z,20.00
2023-01-21T20:53:58.752Z,11.30
2023-01-21T20:56:28.895Z,8.40
2023-01-21T20:58:55.543Z,7.80
2023-01-21T21:01:24.853Z,4.40
2023-01-21T21:03:52.560Z,3.50
2023-01-21T21:06:25.865Z,4.20
2023-01-21T21:08:52.731Z,7.60
2023-01-21T21:11:19.789Z,5.40
2023-01-21T21:13:49.415Z,8.40
2023-01-21T21:16:26.359Z,8.30
2023-01-21T21:18:53.046Z,6.80
2023-01-21T21:21:23.401Z,4.70
2023-01-21T21:23:51.664Z,3.90
2023-01-21T21:26:27.426Z,4.20
2023-01-21T21:28:55.287Z,4.50
2023-01-21T21:31:23.305Z,4.10
2023-01-21T21:33:50.654Z,6.60
2023-01-21T21:36:20.713Z,5.80
2023-01-21T21:38:48.981Z,6.00
2023-01-21T21:41:36.518Z,3.60
2023-01-21T21:44:05.211Z,5.20
2023-01-21T21:46:50.671Z,3.90
2023-01-21T21:49:17.357Z,3.60
2023-01-21T21:51:45.834Z,3.20
2023-01-21T21:54:15.094Z,3.90
2023-01-21T21:56:42.744Z,3.00
2023-01-21T21:59:11.636Z,3.20
2023-01-21T22:01:40.676Z,4.00
2023-01-21T22:04:07.495Z,3.20
2023-01-21T22:06:34.088Z,3.30
2023-01-21T22:09:01.086Z,2.60
2023-01-21T22:11:28.713Z,4.00
2023-01-21T22:13:56.711Z,3.80
2023-01-21T22:16:28.882Z,2.70
2023-01-21T22:18:57.897Z,3.50
2023-01-21T22:21:32.053Z,3.60
2023-01-21T22:24:00.979Z,3.80
2023-01-21T22:26:28.682Z,4.90
2023-01-21T22:28:55.594Z,3.90
2023-01-21T22:31:25.027Z,6.30
2023-01-21T22:33:52.573Z,5.70
2023-01-21T22:36:21.989Z,3.90
2023-01-21T22:38:49.642Z,5.00
2023-01-21T22:41:19.330Z,3.70
2023-01-21T22:43:50.327Z,3.40
2023-01-21T22:46:22.218Z,5.00
2023-01-21T22:48:48.928Z,4.70
2023-01-21T22:51:18.690Z,8.20
2023-01-21T22:53:45.835Z,4.20
2023-01-21T22:56:14.923Z,3.60
2023-01-21T22:58:41.539Z,3.40
2023-01-21T23:01:09.554Z,3.00
2023-01-21T23:03:37.171Z,2.90
2023-01-21T23:06:08.678Z,2.40
2023-01-21T23:08:38.273Z,2.40
2023-01-21T23:11:06.884Z,4.20
2023-01-21T23:13:34.365Z,2.60
2023-01-21T23:16:01.899Z,2.90
2023-01-21T23:18:29.478Z,3.00
2023-01-21T23:20:56.429Z,2.30
2023-01-21T23:23:24.885Z,5.30
2023-01-21T23:25:52.043Z,3.20
2023-01-21T23:28:18.927Z,3.60
2023-01-21T23:30:46.766Z,3.70
2023-01-21T23:33:13.520Z,7.20
2023-01-21T23:35:40.105Z,7.40
2023-01-21T23:38:06.755Z,2.40
2023-01-21T23:40:33.502Z,2.30
2023-01-21T23:43:00.156Z,3.10
2023-01-21T23:45:26.932Z,2.70
2023-01-21T23:47:54.585Z,2.80
2023-01-21T23:50:21.368Z,2.30
2023-01-21T23:52:48.187Z,3.00
2023-01-21T23:55:14.843Z,2.70
2023-01-21T23:57:41.531Z,4.30
